< < Back
Terminal Aerodrome Forecast


Current Version              Previous Versions:   1  2  3  4  5  6  7  8  9  

Terminal Aerodrome Forecast

452
FTUS42 KTAE 281700
TAFTLH
TAF
KTLH 281739Z 2818/2918 19011KT P6SM SCT025 BKN200
     FM290200 18003KT 1SM BR OVC005
     FM291500 20005KT 5SM -SHRA OVC008=



Latest METAR

984
SAUS80 KWBC 291200
MTRTLH
METAR KTLH 291153Z 15004KT 1/2SM FG VV002 19/18 A3003 RMK AO2 SLP169
T01940183 10200 20194 55001


USA.gov is the U.S. government's official web portal to all federal, state and local government web resources and services.